sensor_id;sensor_type;location;lat;lon;timestamp;P1;durP1;ratioP1;P2;durP2;ratioP2
62861;SDS011;48953;53.110;5.592;2022-07-23T00:01:15;10.35;;;5.30;;
62861;SDS011;48953;53.110;5.592;2022-07-23T00:03:41;13.77;;;5.35;;
62861;SDS011;48953;53.110;5.592;2022-07-23T00:06:06;7.68;;;4.50;;
62861;SDS011;48953;53.110;5.592;2022-07-23T00:08:32;11.00;;;4.85;;
62861;SDS011;48953;53.110;5.592;2022-07-23T00:10:57;8.02;;;4.72;;
62861;SDS011;48953;53.110;5.592;2022-07-23T00:13:23;7.25;;;4.60;;
62861;SDS011;48953;53.110;5.592;2022-07-23T00:15:48;8.40;;;4.55;;
62861;SDS011;48953;53.110;5.592;2022-07-23T00:18:15;9.60;;;4.38;;
62861;SDS011;48953;53.110;5.592;2022-07-23T00:20:41;8.27;;;4.20;;
62861;SDS011;48953;53.110;5.592;2022-07-23T00:23:06;11.50;;;4.20;;
62861;SDS011;48953;53.110;5.592;2022-07-23T00:28:02;8.50;;;4.15;;
62861;SDS011;48953;53.110;5.592;2022-07-23T00:30:28;7.35;;;3.90;;
62861;SDS011;48953;53.110;5.592;2022-07-23T00:32:56;10.05;;;4.05;;
62861;SDS011;48953;53.110;5.592;2022-07-23T00:35:27;7.20;;;4.20;;
62861;SDS011;48953;53.110;5.592;2022-07-23T00:37:54;7.95;;;4.43;;
62861;SDS011;48953;53.110;5.592;2022-07-23T00:40:20;6.38;;;4.25;;
62861;SDS011;48953;53.110;5.592;2022-07-23T00:42:46;5.78;;;4.13;;
62861;SDS011;48953;53.110;5.592;2022-07-23T00:45:12;6.20;;;3.90;;
62861;SDS011;48953;53.110;5.592;2022-07-23T00:47:38;5.57;;;3.67;;
62861;SDS011;48953;53.110;5.592;2022-07-23T00:50:04;5.45;;;3.97;;
62861;SDS011;48953;53.110;5.592;2022-07-23T00:52:31;7.10;;;3.72;;
62861;SDS011;48953;53.110;5.592;2022-07-23T00:54:57;5.97;;;3.47;;
62861;SDS011;48953;53.110;5.592;2022-07-23T00:57:23;5.75;;;3.80;;
62861;SDS011;48953;53.110;5.592;2022-07-23T00:59:48;5.90;;;3.50;;
62861;SDS011;48953;53.110;5.592;2022-07-23T01:02:14;4.82;;;3.10;;
62861;SDS011;48953;53.110;5.592;2022-07-23T01:04:39;5.10;;;3.50;;
62861;SDS011;48953;53.110;5.592;2022-07-23T01:07:05;8.90;;;3.65;;
62861;SDS011;48953;53.110;5.592;2022-07-23T01:09:31;5.18;;;3.28;;
62861;SDS011;48953;53.110;5.592;2022-07-23T01:11:57;7.57;;;4.15;;
62861;SDS011;48953;53.110;5.592;2022-07-23T01:14:23;9.05;;;4.45;;
62861;SDS011;48953;53.110;5.592;2022-07-23T01:16:49;6.07;;;4.80;;
62861;SDS011;48953;53.110;5.592;2022-07-23T01:19:15;8.55;;;4.28;;
62861;SDS011;48953;53.110;5.592;2022-07-23T01:21:51;6.93;;;4.20;;
62861;SDS011;48953;53.110;5.592;2022-07-23T01:24:18;8.60;;;4.38;;
62861;SDS011;48953;53.110;5.592;2022-07-23T01:26:47;7.88;;;4.20;;
62861;SDS011;48953;53.110;5.592;2022-07-23T01:29:14;7.22;;;4.13;;
62861;SDS011;48953;53.110;5.592;2022-07-23T01:31:40;6.90;;;4.10;;
62861;SDS011;48953;53.110;5.592;2022-07-23T01:34:06;8.13;;;3.88;;
62861;SDS011;48953;53.110;5.592;2022-07-23T01:36:32;7.63;;;3.83;;
62861;SDS011;48953;53.110;5.592;2022-07-23T01:38:58;7.50;;;4.45;;
62861;SDS011;48953;53.110;5.592;2022-07-23T01:41:24;8.55;;;4.45;;
62861;SDS011;48953;53.110;5.592;2022-07-23T01:43:50;7.05;;;4.13;;
62861;SDS011;48953;53.110;5.592;2022-07-23T01:46:16;8.20;;;4.25;;
62861;SDS011;48953;53.110;5.592;2022-07-23T01:48:41;10.45;;;4.18;;
62861;SDS011;48953;53.110;5.592;2022-07-23T01:51:07;9.13;;;4.28;;
62861;SDS011;48953;53.110;5.592;2022-07-23T01:53:33;6.70;;;4.00;;
62861;SDS011;48953;53.110;5.592;2022-07-23T01:55:59;9.15;;;4.32;;
62861;SDS011;48953;53.110;5.592;2022-07-23T01:58:26;5.40;;;3.92;;
62861;SDS011;48953;53.110;5.592;2022-07-23T02:00:52;5.55;;;4.03;;
62861;SDS011;48953;53.110;5.592;2022-07-23T02:03:19;6.32;;;3.63;;
62861;SDS011;48953;53.110;5.592;2022-07-23T02:05:45;7.15;;;4.55;;
62861;SDS011;48953;53.110;5.592;2022-07-23T02:08:10;6.40;;;3.90;;
62861;SDS011;48953;53.110;5.592;2022-07-23T02:10:36;7.68;;;4.72;;
62861;SDS011;48953;53.110;5.592;2022-07-23T02:13:02;8.57;;;3.70;;
62861;SDS011;48953;53.110;5.592;2022-07-23T02:15:27;5.88;;;3.88;;
62861;SDS011;48953;53.110;5.592;2022-07-23T02:17:53;6.53;;;3.92;;
62861;SDS011;48953;53.110;5.592;2022-07-23T02:20:19;6.93;;;4.07;;
62861;SDS011;48953;53.110;5.592;2022-07-23T02:22:45;6.85;;;4.07;;
62861;SDS011;48953;53.110;5.592;2022-07-23T02:25:11;6.53;;;4.22;;
62861;SDS011;48953;53.110;5.592;2022-07-23T02:27:36;7.22;;;4.40;;
62861;SDS011;48953;53.110;5.592;2022-07-23T02:30:02;7.22;;;4.28;;
62861;SDS011;48953;53.110;5.592;2022-07-23T02:32:28;5.85;;;3.92;;
62861;SDS011;48953;53.110;5.592;2022-07-23T02:34:54;7.25;;;3.78;;
62861;SDS011;48953;53.110;5.592;2022-07-23T02:37:20;6.25;;;3.80;;
62861;SDS011;48953;53.110;5.592;2022-07-23T02:39:45;6.13;;;3.45;;
62861;SDS011;48953;53.110;5.592;2022-07-23T02:42:13;7.65;;;3.88;;
62861;SDS011;48953;53.110;5.592;2022-07-23T02:44:39;5.68;;;3.53;;
62861;SDS011;48953;53.110;5.592;2022-07-23T02:47:04;5.88;;;3.42;;
62861;SDS011;48953;53.110;5.592;2022-07-23T02:49:30;6.32;;;3.53;;
62861;SDS011;48953;53.110;5.592;2022-07-23T02:51:56;9.98;;;3.67;;
62861;SDS011;48953;53.110;5.592;2022-07-23T02:54:21;5.78;;;3.28;;
62861;SDS011;48953;53.110;5.592;2022-07-23T02:56:47;7.78;;;3.42;;
62861;SDS011;48953;53.110;5.592;2022-07-23T02:59:13;6.32;;;3.55;;
62861;SDS011;48953;53.110;5.592;2022-07-23T03:01:38;7.22;;;4.13;;
62861;SDS011;48953;53.110;5.592;2022-07-23T03:04:04;8.98;;;4.65;;
62861;SDS011;48953;53.110;5.592;2022-07-23T03:06:29;9.13;;;4.93;;
62861;SDS011;48953;53.110;5.592;2022-07-23T03:08:55;13.65;;;5.60;;
62861;SDS011;48953;53.110;5.592;2022-07-23T03:11:21;9.07;;;5.10;;
62861;SDS011;48953;53.110;5.592;2022-07-23T03:13:46;9.95;;;5.55;;
62861;SDS011;48953;53.110;5.592;2022-07-23T03:16:12;11.95;;;5.63;;
62861;SDS011;48953;53.110;5.592;2022-07-23T03:18:37;12.35;;;5.68;;
62861;SDS011;48953;53.110;5.592;2022-07-23T03:21:03;9.02;;;5.10;;
62861;SDS011;48953;53.110;5.592;2022-07-23T03:23:28;9.43;;;5.25;;
62861;SDS011;48953;53.110;5.592;2022-07-23T03:25:54;8.25;;;4.53;;
62861;SDS011;48953;53.110;5.592;2022-07-23T03:28:20;8.18;;;5.07;;
62861;SDS011;48953;53.110;5.592;2022-07-23T03:30:46;8.45;;;4.80;;
62861;SDS011;48953;53.110;5.592;2022-07-23T03:33:12;11.18;;;5.30;;
62861;SDS011;48953;53.110;5.592;2022-07-23T03:35:38;9.02;;;4.88;;
62861;SDS011;48953;53.110;5.592;2022-07-23T03:38:04;8.43;;;5.22;;
62861;SDS011;48953;53.110;5.592;2022-07-23T03:40:29;8.68;;;4.57;;
62861;SDS011;48953;53.110;5.592;2022-07-23T03:42:55;9.27;;;5.05;;
62861;SDS011;48953;53.110;5.592;2022-07-23T03:45:20;7.82;;;4.78;;
62861;SDS011;48953;53.110;5.592;2022-07-23T03:47:46;8.68;;;4.72;;
62861;SDS011;48953;53.110;5.592;2022-07-23T03:50:11;8.77;;;5.03;;
62861;SDS011;48953;53.110;5.592;2022-07-23T03:52:37;10.75;;;5.22;;
62861;SDS011;48953;53.110;5.592;2022-07-23T03:55:03;10.02;;;4.75;;
62861;SDS011;48953;53.110;5.592;2022-07-23T03:57:29;8.82;;;4.90;;
62861;SDS011;48953;53.110;5.592;2022-07-23T03:59:55;7.82;;;4.75;;
62861;SDS011;48953;53.110;5.592;2022-07-23T04:02:20;10.40;;;4.68;;
62861;SDS011;48953;53.110;5.592;2022-07-23T04:04:46;7.43;;;4.75;;
62861;SDS011;48953;53.110;5.592;2022-07-23T04:07:12;7.95;;;4.55;;
62861;SDS011;48953;53.110;5.592;2022-07-23T04:09:38;8.27;;;4.93;;
62861;SDS011;48953;53.110;5.592;2022-07-23T04:12:05;9.02;;;4.90;;
62861;SDS011;48953;53.110;5.592;2022-07-23T04:14:31;6.93;;;4.70;;
62861;SDS011;48953;53.110;5.592;2022-07-23T04:16:57;12.57;;;5.03;;
62861;SDS011;48953;53.110;5.592;2022-07-23T04:19:23;10.93;;;4.93;;
62861;SDS011;48953;53.110;5.592;2022-07-23T04:21:48;8.18;;;4.78;;
62861;SDS011;48953;53.110;5.592;2022-07-23T04:24:14;8.57;;;5.07;;
62861;SDS011;48953;53.110;5.592;2022-07-23T04:26:39;7.35;;;4.50;;
62861;SDS011;48953;53.110;5.592;2022-07-23T04:29:05;6.13;;;4.20;;
62861;SDS011;48953;53.110;5.592;2022-07-23T04:31:30;6.78;;;4.15;;
62861;SDS011;48953;53.110;5.592;2022-07-23T04:33:56;6.50;;;3.78;;
62861;SDS011;48953;53.110;5.592;2022-07-23T04:36:22;7.22;;;3.78;;
62861;SDS011;48953;53.110;5.592;2022-07-23T04:38:47;6.15;;;3.90;;
62861;SDS011;48953;53.110;5.592;2022-07-23T04:41:13;6.30;;;3.80;;
62861;SDS011;48953;53.110;5.592;2022-07-23T04:43:38;6.63;;;3.95;;
62861;SDS011;48953;53.110;5.592;2022-07-23T04:46:04;6.95;;;4.00;;
62861;SDS011;48953;53.110;5.592;2022-07-23T04:48:30;7.75;;;4.05;;
62861;SDS011;48953;53.110;5.592;2022-07-23T04:50:56;5.80;;;4.00;;
62861;SDS011;48953;53.110;5.592;2022-07-23T04:53:21;5.05;;;3.47;;
62861;SDS011;48953;53.110;5.592;2022-07-23T04:55:47;5.97;;;3.42;;
62861;SDS011;48953;53.110;5.592;2022-07-23T04:58:13;5.65;;;3.10;;
62861;SDS011;48953;53.110;5.592;2022-07-23T05:00:38;6.03;;;3.67;;
62861;SDS011;48953;53.110;5.592;2022-07-23T05:03:05;4.63;;;3.22;;
62861;SDS011;48953;53.110;5.592;2022-07-23T05:05:30;6.50;;;3.20;;
62861;SDS011;48953;53.110;5.592;2022-07-23T05:07:56;5.53;;;2.38;;
62861;SDS011;48953;53.110;5.592;2022-07-23T05:10:22;3.88;;;2.42;;
62861;SDS011;48953;53.110;5.592;2022-07-23T05:12:47;3.63;;;2.45;;
62861;SDS011;48953;53.110;5.592;2022-07-23T05:15:13;2.35;;;2.10;;
62861;SDS011;48953;53.110;5.592;2022-07-23T05:17:38;4.45;;;2.60;;
62861;SDS011;48953;53.110;5.592;2022-07-23T05:20:04;3.35;;;2.53;;
62861;SDS011;48953;53.110;5.592;2022-07-23T05:22:30;2.33;;;2.13;;
62861;SDS011;48953;53.110;5.592;2022-07-23T05:24:55;2.25;;;1.92;;
62861;SDS011;48953;53.110;5.592;2022-07-23T05:27:21;2.55;;;1.83;;
62861;SDS011;48953;53.110;5.592;2022-07-23T05:29:47;3.65;;;1.80;;
62861;SDS011;48953;53.110;5.592;2022-07-23T05:32:12;2.03;;;1.83;;
62861;SDS011;48953;53.110;5.592;2022-07-23T05:34:38;2.20;;;1.85;;
62861;SDS011;48953;53.110;5.592;2022-07-23T05:37:03;2.92;;;1.52;;
62861;SDS011;48953;53.110;5.592;2022-07-23T05:39:29;1.80;;;1.70;;
62861;SDS011;48953;53.110;5.592;2022-07-23T05:41:54;2.17;;;1.65;;
62861;SDS011;48953;53.110;5.592;2022-07-23T05:44:20;1.75;;;1.42;;
62861;SDS011;48953;53.110;5.592;2022-07-23T05:46:45;2.35;;;1.30;;
62861;SDS011;48953;53.110;5.592;2022-07-23T05:49:11;1.73;;;1.08;;
62861;SDS011;48953;53.110;5.592;2022-07-23T05:51:36;2.28;;;1.10;;
62861;SDS011;48953;53.110;5.592;2022-07-23T05:54:02;1.35;;;0.80;;
62861;SDS011;48953;53.110;5.592;2022-07-23T05:56:28;0.80;;;0.80;;
62861;SDS011;48953;53.110;5.592;2022-07-23T05:58:53;0.93;;;0.60;;
62861;SDS011;48953;53.110;5.592;2022-07-23T06:01:19;2.45;;;0.75;;
62861;SDS011;48953;53.110;5.592;2022-07-23T06:03:44;0.80;;;0.40;;
62861;SDS011;48953;53.110;5.592;2022-07-23T06:06:10;1.52;;;0.40;;
62861;SDS011;48953;53.110;5.592;2022-07-23T06:08:36;1.80;;;0.30;;
62861;SDS011;48953;53.110;5.592;2022-07-23T06:11:01;0.52;;;0.30;;
62861;SDS011;48953;53.110;5.592;2022-07-23T06:13:27;0.85;;;0.40;;
62861;SDS011;48953;53.110;5.592;2022-07-23T06:15:52;1.17;;;0.40;;
62861;SDS011;48953;53.110;5.592;2022-07-23T06:18:18;0.70;;;0.30;;
62861;SDS011;48953;53.110;5.592;2022-07-23T06:20:43;1.20;;;0.70;;
62861;SDS011;48953;53.110;5.592;2022-07-23T06:23:09;0.80;;;0.35;;
62861;SDS011;48953;53.110;5.592;2022-07-23T06:25:35;0.45;;;0.40;;
62861;SDS011;48953;53.110;5.592;2022-07-23T06:28:00;1.25;;;0.30;;
62861;SDS011;48953;53.110;5.592;2022-07-23T06:30:26;1.10;;;0.47;;
62861;SDS011;48953;53.110;5.592;2022-07-23T06:32:51;0.50;;;0.30;;
62861;SDS011;48953;53.110;5.592;2022-07-23T06:35:17;1.42;;;0.30;;
62861;SDS011;48953;53.110;5.592;2022-07-23T06:37:43;1.27;;;0.30;;
62861;SDS011;48953;53.110;5.592;2022-07-23T06:40:08;0.57;;;0.50;;
62861;SDS011;48953;53.110;5.592;2022-07-23T06:42:34;0.77;;;0.30;;
62861;SDS011;48953;53.110;5.592;2022-07-23T06:45:02;3.20;;;0.57;;
62861;SDS011;48953;53.110;5.592;2022-07-23T06:47:28;0.80;;;0.40;;
62861;SDS011;48953;53.110;5.592;2022-07-23T06:49:54;0.80;;;0.30;;
62861;SDS011;48953;53.110;5.592;2022-07-23T06:52:19;2.03;;;0.60;;
62861;SDS011;48953;53.110;5.592;2022-07-23T06:54:45;0.50;;;0.30;;
62861;SDS011;48953;53.110;5.592;2022-07-23T06:57:11;1.40;;;0.47;;
62861;SDS011;48953;53.110;5.592;2022-07-23T06:59:36;0.43;;;0.30;;
62861;SDS011;48953;53.110;5.592;2022-07-23T07:02:05;0.68;;;0.40;;
62861;SDS011;48953;53.110;5.592;2022-07-23T07:04:31;0.43;;;0.30;;
62861;SDS011;48953;53.110;5.592;2022-07-23T07:06:57;0.82;;;0.35;;
62861;SDS011;48953;53.110;5.592;2022-07-23T07:09:22;0.40;;;0.32;;
62861;SDS011;48953;53.110;5.592;2022-07-23T07:11:48;1.15;;;0.30;;
62861;SDS011;48953;53.110;5.592;2022-07-23T07:14:14;0.88;;;0.68;;
62861;SDS011;48953;53.110;5.592;2022-07-23T07:16:39;1.77;;;0.40;;
62861;SDS011;48953;53.110;5.592;2022-07-23T07:19:05;2.35;;;0.50;;
62861;SDS011;48953;53.110;5.592;2022-07-23T07:21:30;1.00;;;0.47;;
62861;SDS011;48953;53.110;5.592;2022-07-23T07:23:56;1.13;;;0.40;;
62861;SDS011;48953;53.110;5.592;2022-07-23T07:26:21;0.63;;;0.40;;
62861;SDS011;48953;53.110;5.592;2022-07-23T07:28:47;0.43;;;0.43;;
62861;SDS011;48953;53.110;5.592;2022-07-23T07:31:13;1.48;;;0.60;;
62861;SDS011;48953;53.110;5.592;2022-07-23T07:33:38;2.28;;;0.65;;
62861;SDS011;48953;53.110;5.592;2022-07-23T07:36:04;1.23;;;0.70;;
62861;SDS011;48953;53.110;5.592;2022-07-23T07:38:30;1.42;;;0.75;;
62861;SDS011;48953;53.110;5.592;2022-07-23T07:40:56;1.40;;;0.50;;
62861;SDS011;48953;53.110;5.592;2022-07-23T07:43:21;1.35;;;0.60;;
62861;SDS011;48953;53.110;5.592;2022-07-23T07:45:47;0.82;;;0.50;;
62861;SDS011;48953;53.110;5.592;2022-07-23T07:48:12;0.77;;;0.75;;
62861;SDS011;48953;53.110;5.592;2022-07-23T07:50:38;0.55;;;0.45;;
62861;SDS011;48953;53.110;5.592;2022-07-23T07:53:04;1.08;;;0.60;;
62861;SDS011;48953;53.110;5.592;2022-07-23T07:55:29;2.20;;;0.75;;
62861;SDS011;48953;53.110;5.592;2022-07-23T07:57:55;1.85;;;0.70;;
62861;SDS011;48953;53.110;5.592;2022-07-23T08:00:21;1.10;;;0.70;;
62861;SDS011;48953;53.110;5.592;2022-07-23T08:02:48;1.45;;;0.68;;
62861;SDS011;48953;53.110;5.592;2022-07-23T08:05:18;0.90;;;0.77;;
62861;SDS011;48953;53.110;5.592;2022-07-23T08:07:51;1.50;;;0.50;;
62861;SDS011;48953;53.110;5.592;2022-07-23T08:10:17;0.70;;;0.50;;
62861;SDS011;48953;53.110;5.592;2022-07-23T08:12:51;1.60;;;0.75;;
62861;SDS011;48953;53.110;5.592;2022-07-23T08:15:19;1.45;;;0.55;;
62861;SDS011;48953;53.110;5.592;2022-07-23T08:17:46;1.17;;;0.52;;
62861;SDS011;48953;53.110;5.592;2022-07-23T08:20:15;1.70;;;0.50;;
62861;SDS011;48953;53.110;5.592;2022-07-23T08:22:46;1.17;;;0.57;;
62861;SDS011;48953;53.110;5.592;2022-07-23T08:25:45;0.57;;;0.40;;
62861;SDS011;48953;53.110;5.592;2022-07-23T08:28:12;2.25;;;0.50;;
62861;SDS011;48953;53.110;5.592;2022-07-23T08:30:38;0.50;;;0.50;;
62861;SDS011;48953;53.110;5.592;2022-07-23T08:33:09;1.50;;;0.50;;
62861;SDS011;48953;53.110;5.592;2022-07-23T08:35:38;2.03;;;0.57;;
62861;SDS011;48953;53.110;5.592;2022-07-23T08:38:09;2.30;;;0.70;;
62861;SDS011;48953;53.110;5.592;2022-07-23T08:40:36;1.58;;;0.50;;
62861;SDS011;48953;53.110;5.592;2022-07-23T08:43:05;2.88;;;0.70;;
62861;SDS011;48953;53.110;5.592;2022-07-23T08:45:32;1.50;;;0.50;;
62861;SDS011;48953;53.110;5.592;2022-07-23T08:48:02;1.30;;;0.45;;
62861;SDS011;48953;53.110;5.592;2022-07-23T08:50:28;1.67;;;0.50;;
62861;SDS011;48953;53.110;5.592;2022-07-23T08:52:54;1.35;;;0.60;;
62861;SDS011;48953;53.110;5.592;2022-07-23T08:55:21;1.55;;;0.43;;
62861;SDS011;48953;53.110;5.592;2022-07-23T08:57:49;0.65;;;0.57;;
62861;SDS011;48953;53.110;5.592;2022-07-23T09:00:17;0.73;;;0.38;;
62861;SDS011;48953;53.110;5.592;2022-07-23T09:02:45;0.75;;;0.50;;
62861;SDS011;48953;53.110;5.592;2022-07-23T09:05:11;2.40;;;0.50;;
62861;SDS011;48953;53.110;5.592;2022-07-23T09:07:38;2.05;;;0.80;;
62861;SDS011;48953;53.110;5.592;2022-07-23T09:10:29;1.27;;;0.70;;
62861;SDS011;48953;53.110;5.592;2022-07-23T09:12:59;0.60;;;0.60;;
62861;SDS011;48953;53.110;5.592;2022-07-23T09:15:25;1.20;;;0.55;;
62861;SDS011;48953;53.110;5.592;2022-07-23T09:17:50;2.10;;;0.40;;
62861;SDS011;48953;53.110;5.592;2022-07-23T09:20:16;2.72;;;0.70;;
62861;SDS011;48953;53.110;5.592;2022-07-23T09:22:46;0.90;;;0.70;;
62861;SDS011;48953;53.110;5.592;2022-07-23T09:25:13;0.60;;;0.60;;
62861;SDS011;48953;53.110;5.592;2022-07-23T09:30:18;2.20;;;0.65;;
62861;SDS011;48953;53.110;5.592;2022-07-23T09:35:53;1.30;;;0.60;;
62861;SDS011;48953;53.110;5.592;2022-07-23T09:38:21;0.70;;;0.60;;
62861;SDS011;48953;53.110;5.592;2022-07-23T09:43:36;3.20;;;0.60;;
62861;SDS011;48953;53.110;5.592;2022-07-23T09:46:17;1.63;;;0.70;;
62861;SDS011;48953;53.110;5.592;2022-07-23T09:48:51;1.50;;;0.70;;
62861;SDS011;48953;53.110;5.592;2022-07-23T09:51:21;0.77;;;0.70;;
62861;SDS011;48953;53.110;5.592;2022-07-23T09:53:57;0.50;;;0.50;;
62861;SDS011;48953;53.110;5.592;2022-07-23T09:56:23;0.68;;;0.52;;
62861;SDS011;48953;53.110;5.592;2022-07-23T09:58:51;1.55;;;0.75;;
62861;SDS011;48953;53.110;5.592;2022-07-23T10:01:25;0.88;;;0.70;;
62861;SDS011;48953;53.110;5.592;2022-07-23T10:03:52;1.67;;;0.80;;
62861;SDS011;48953;53.110;5.592;2022-07-23T10:06:18;0.70;;;0.60;;
62861;SDS011;48953;53.110;5.592;2022-07-23T10:08:44;0.68;;;0.65;;
62861;SDS011;48953;53.110;5.592;2022-07-23T10:11:12;0.60;;;0.60;;
62861;SDS011;48953;53.110;5.592;2022-07-23T10:13:39;1.42;;;0.70;;
62861;SDS011;48953;53.110;5.592;2022-07-23T10:16:22;3.00;;;0.70;;
62861;SDS011;48953;53.110;5.592;2022-07-23T10:18:48;1.65;;;0.60;;
62861;SDS011;48953;53.110;5.592;2022-07-23T10:26:53;2.97;;;0.73;;
62861;SDS011;48953;53.110;5.592;2022-07-23T10:34:36;0.70;;;0.70;;
62861;SDS011;48953;53.110;5.592;2022-07-23T10:39:41;0.68;;;0.60;;
62861;SDS011;48953;53.110;5.592;2022-07-23T10:42:10;2.20;;;1.00;;
62861;SDS011;48953;53.110;5.592;2022-07-23T10:44:47;1.80;;;0.55;;
62861;SDS011;48953;53.110;5.592;2022-07-23T10:47:27;2.67;;;1.02;;
62861;SDS011;48953;53.110;5.592;2022-07-23T10:57:57;2.58;;;0.93;;
62861;SDS011;48953;53.110;5.592;2022-07-23T11:00:23;0.80;;;0.70;;
62861;SDS011;48953;53.110;5.592;2022-07-23T11:02:51;1.38;;;0.95;;
62861;SDS011;48953;53.110;5.592;2022-07-23T11:06:01;0.80;;;0.80;;
62861;SDS011;48953;53.110;5.592;2022-07-23T11:26:46;1.65;;;1.10;;
62861;SDS011;48953;53.110;5.592;2022-07-23T11:34:31;2.25;;;0.90;;
62861;SDS011;48953;53.110;5.592;2022-07-23T11:37:04;1.23;;;0.80;;
62861;SDS011;48953;53.110;5.592;2022-07-23T11:39:31;1.30;;;0.90;;
62861;SDS011;48953;53.110;5.592;2022-07-23T11:41:58;1.30;;;0.98;;
62861;SDS011;48953;53.110;5.592;2022-07-23T11:44:25;1.35;;;0.80;;
62861;SDS011;48953;53.110;5.592;2022-07-23T11:46:58;2.22;;;1.00;;
62861;SDS011;48953;53.110;5.592;2022-07-23T11:49:25;3.38;;;0.90;;
62861;SDS011;48953;53.110;5.592;2022-07-23T11:52:07;1.55;;;0.88;;
62861;SDS011;48953;53.110;5.592;2022-07-23T11:54:46;3.58;;;0.95;;
62861;SDS011;48953;53.110;5.592;2022-07-23T11:57:15;1.42;;;0.90;;
62861;SDS011;48953;53.110;5.592;2022-07-23T11:59:41;1.13;;;0.88;;
62861;SDS011;48953;53.110;5.592;2022-07-23T12:02:08;5.10;;;0.93;;
62861;SDS011;48953;53.110;5.592;2022-07-23T12:04:44;1.33;;;0.90;;
62861;SDS011;48953;53.110;5.592;2022-07-23T12:09:50;2.25;;;0.80;;
62861;SDS011;48953;53.110;5.592;2022-07-23T12:12:16;1.13;;;1.05;;
62861;SDS011;48953;53.110;5.592;2022-07-23T12:14:57;1.77;;;0.77;;
62861;SDS011;48953;53.110;5.592;2022-07-23T12:17:30;1.65;;;0.90;;
62861;SDS011;48953;53.110;5.592;2022-07-23T12:19:58;1.92;;;1.23;;
62861;SDS011;48953;53.110;5.592;2022-07-23T12:22:26;1.65;;;1.00;;
62861;SDS011;48953;53.110;5.592;2022-07-23T12:25:03;1.67;;;0.95;;
62861;SDS011;48953;53.110;5.592;2022-07-23T12:27:30;1.20;;;1.10;;
62861;SDS011;48953;53.110;5.592;2022-07-23T12:29:55;1.90;;;0.80;;
62861;SDS011;48953;53.110;5.592;2022-07-23T12:32:22;1.13;;;1.00;;
62861;SDS011;48953;53.110;5.592;2022-07-23T12:35:11;1.63;;;1.00;;
62861;SDS011;48953;53.110;5.592;2022-07-23T12:37:37;1.60;;;1.02;;
62861;SDS011;48953;53.110;5.592;2022-07-23T12:42:52;2.00;;;1.10;;
62861;SDS011;48953;53.110;5.592;2022-07-23T12:45:20;4.40;;;1.20;;
62861;SDS011;48953;53.110;5.592;2022-07-23T12:47:50;3.15;;;1.35;;
62861;SDS011;48953;53.110;5.592;2022-07-23T12:50:37;1.17;;;1.08;;
62861;SDS011;48953;53.110;5.592;2022-07-23T12:53:15;1.30;;;1.20;;
62861;SDS011;48953;53.110;5.592;2022-07-23T12:55:43;1.98;;;1.30;;
62861;SDS011;48953;53.110;5.592;2022-07-23T12:58:12;3.08;;;1.30;;
62861;SDS011;48953;53.110;5.592;2022-07-23T13:00:55;2.08;;;1.20;;
62861;SDS011;48953;53.110;5.592;2022-07-23T13:03:26;1.35;;;0.90;;
62861;SDS011;48953;53.110;5.592;2022-07-23T13:05:54;1.60;;;1.23;;
62861;SDS011;48953;53.110;5.592;2022-07-23T13:08:20;1.88;;;1.10;;
62861;SDS011;48953;53.110;5.592;2022-07-23T13:10:46;2.95;;;1.40;;
62861;SDS011;48953;53.110;5.592;2022-07-23T13:13:14;2.90;;;1.20;;
62861;SDS011;48953;53.110;5.592;2022-07-23T13:15:40;4.03;;;1.20;;
62861;SDS011;48953;53.110;5.592;2022-07-23T13:18:07;1.35;;;0.80;;
62861;SDS011;48953;53.110;5.592;2022-07-23T13:20:33;1.52;;;1.10;;
62861;SDS011;48953;53.110;5.592;2022-07-23T13:22:59;1.13;;;1.00;;
62861;SDS011;48953;53.110;5.592;2022-07-23T13:25:26;1.20;;;1.10;;
62861;SDS011;48953;53.110;5.592;2022-07-23T13:27:51;1.25;;;0.90;;
62861;SDS011;48953;53.110;5.592;2022-07-23T13:30:17;1.20;;;1.10;;
62861;SDS011;48953;53.110;5.592;2022-07-23T13:32:43;1.83;;;1.30;;
62861;SDS011;48953;53.110;5.592;2022-07-23T13:35:09;2.03;;;1.23;;
62861;SDS011;48953;53.110;5.592;2022-07-23T13:37:34;2.80;;;1.15;;
62861;SDS011;48953;53.110;5.592;2022-07-23T13:40:00;1.50;;;1.02;;
62861;SDS011;48953;53.110;5.592;2022-07-23T13:42:26;2.20;;;1.10;;
62861;SDS011;48953;53.110;5.592;2022-07-23T13:44:52;2.33;;;1.30;;
62861;SDS011;48953;53.110;5.592;2022-07-23T13:47:18;2.33;;;1.10;;
62861;SDS011;48953;53.110;5.592;2022-07-23T13:49:43;4.30;;;1.20;;
62861;SDS011;48953;53.110;5.592;2022-07-23T13:52:09;1.58;;;1.20;;
62861;SDS011;48953;53.110;5.592;2022-07-23T13:54:34;1.80;;;1.30;;
62861;SDS011;48953;53.110;5.592;2022-07-23T13:57:00;1.77;;;1.17;;
62861;SDS011;48953;53.110;5.592;2022-07-23T13:59:26;1.30;;;1.15;;
62861;SDS011;48953;53.110;5.592;2022-07-23T14:01:52;3.60;;;1.10;;
62861;SDS011;48953;53.110;5.592;2022-07-23T14:04:18;2.08;;;1.05;;
62861;SDS011;48953;53.110;5.592;2022-07-23T14:06:43;2.58;;;1.10;;
62861;SDS011;48953;53.110;5.592;2022-07-23T14:09:09;2.55;;;1.10;;
62861;SDS011;48953;53.110;5.592;2022-07-23T14:11:34;1.80;;;1.20;;
62861;SDS011;48953;53.110;5.592;2022-07-23T14:14:00;1.10;;;1.00;;
62861;SDS011;48953;53.110;5.592;2022-07-23T14:16:26;2.65;;;1.23;;
62861;SDS011;48953;53.110;5.592;2022-07-23T14:18:51;2.28;;;1.20;;
62861;SDS011;48953;53.110;5.592;2022-07-23T14:21:17;2.00;;;1.10;;
62861;SDS011;48953;53.110;5.592;2022-07-23T14:23:42;1.83;;;1.23;;
62861;SDS011;48953;53.110;5.592;2022-07-23T14:26:08;2.30;;;1.48;;
62861;SDS011;48953;53.110;5.592;2022-07-23T14:28:34;1.60;;;1.23;;
62861;SDS011;48953;53.110;5.592;2022-07-23T14:30:59;2.55;;;1.25;;
62861;SDS011;48953;53.110;5.592;2022-07-23T14:33:25;2.75;;;1.30;;
62861;SDS011;48953;53.110;5.592;2022-07-23T14:35:51;3.28;;;1.40;;
62861;SDS011;48953;53.110;5.592;2022-07-23T14:38:16;1.30;;;1.20;;
62861;SDS011;48953;53.110;5.592;2022-07-23T14:40:42;3.80;;;1.33;;
62861;SDS011;48953;53.110;5.592;2022-07-23T14:43:08;2.13;;;1.15;;
62861;SDS011;48953;53.110;5.592;2022-07-23T14:45:34;2.08;;;1.20;;
62861;SDS011;48953;53.110;5.592;2022-07-23T14:47:59;4.40;;;3.13;;
62861;SDS011;48953;53.110;5.592;2022-07-23T14:50:27;2.30;;;1.83;;
62861;SDS011;48953;53.110;5.592;2022-07-23T14:52:52;1.90;;;1.40;;
62861;SDS011;48953;53.110;5.592;2022-07-23T14:55:18;1.77;;;1.13;;
62861;SDS011;48953;53.110;5.592;2022-07-23T14:57:44;2.05;;;1.75;;
62861;SDS011;48953;53.110;5.592;2022-07-23T15:00:10;1.77;;;1.48;;
62861;SDS011;48953;53.110;5.592;2022-07-23T15:02:35;1.67;;;1.40;;
62861;SDS011;48953;53.110;5.592;2022-07-23T15:05:01;1.27;;;1.10;;
62861;SDS011;48953;53.110;5.592;2022-07-23T15:07:28;1.60;;;1.45;;
62861;SDS011;48953;53.110;5.592;2022-07-23T15:09:55;3.42;;;1.85;;
62861;SDS011;48953;53.110;5.592;2022-07-23T15:12:21;3.03;;;1.63;;
62861;SDS011;48953;53.110;5.592;2022-07-23T15:14:47;2.20;;;1.23;;
62861;SDS011;48953;53.110;5.592;2022-07-23T15:17:12;2.38;;;1.60;;
62861;SDS011;48953;53.110;5.592;2022-07-23T15:19:38;2.05;;;1.52;;
62861;SDS011;48953;53.110;5.592;2022-07-23T15:22:03;1.55;;;1.40;;
62861;SDS011;48953;53.110;5.592;2022-07-23T15:24:29;4.90;;;1.80;;
62861;SDS011;48953;53.110;5.592;2022-07-23T15:26:55;2.40;;;2.15;;
62861;SDS011;48953;53.110;5.592;2022-07-23T15:29:21;2.63;;;1.50;;
62861;SDS011;48953;53.110;5.592;2022-07-23T15:31:47;1.65;;;1.30;;
62861;SDS011;48953;53.110;5.592;2022-07-23T15:34:13;3.55;;;1.20;;
62861;SDS011;48953;53.110;5.592;2022-07-23T15:36:39;2.10;;;1.40;;
62861;SDS011;48953;53.110;5.592;2022-07-23T15:39:04;1.92;;;1.60;;
62861;SDS011;48953;53.110;5.592;2022-07-23T15:41:30;3.47;;;2.30;;
62861;SDS011;48953;53.110;5.592;2022-07-23T15:43:56;3.40;;;2.00;;
62861;SDS011;48953;53.110;5.592;2022-07-23T15:46:22;2.10;;;1.42;;
62861;SDS011;48953;53.110;5.592;2022-07-23T15:48:48;5.25;;;3.20;;